首页
METAR-TAF:

METAR-TAF

机场 :

伯明翰-沙特尔斯沃思国际机场

伯明翰, 阿拉巴马州, 美国

纬度: 33-33-56N, 经度: 086-44-42W, 海拔: 196米

当前天气观测

该预报发布于40分钟前的18:53 UTC
风速9节,风向北转西北
温度 23°C
湿度 31%
气压 1022 hPa
能見度: 16.1公里
少量云层高于8500英尺
多云层高于15000英尺
阴天层高于25000英尺

METAR: KBHM 301853Z 34009KT 10SM FEW085 BKN150 OVC250 23/05 A3018 RMK AO2 SLP213 T02280050

时间: 14:33 (19:33 UTC)

预报

该预报发布于1小时和53分钟前的17:40 UTC
预报有效从30日的 18点(UTC)到 31日的 18点(UTC)
风速8节,风向
能見度: 10公里
多云层高于15000英尺
几率 30%
从 31日的 03点(UTC)到 31日的 06点(UTC)
能見度: 6.4公里
阴天层高于2500英尺
阵雨
从 31日的 0600点(UTC)
风速3节,风向多变
能見度: 10公里
阴天层高于6000英尺
阵雨
从 31日的 1300点(UTC)
风速9节,风向
能見度: 10公里
阴天层高于2500英尺
阵雨
从 31日的 1500点(UTC)
风速9节,风向东转东南
能見度: 6.4公里
阴天层高于1300英尺
阵雨

TAF: KBHM 301740Z 3018/3118 01008KT P6SM BKN150 PROB30 3103/3106 4SM SHRA OVC025 FM310600 VRB03KT P6SM SHRA OVC060 FM311300 09009KT P6SM SHRA OVC025 FM311500 11009KT 4SM SHRA OVC013

超过4000个机场的气象观测和天气预报(METAR&TAF报告)。

可查询的气象台以黄色和红色小点在地图上表示。

将鼠标移到小点上方,可查看气象台名称。

然后点击查看天气观测和预报。

如需切换地图:点击带黑十字的绿色按钮放大地图;点击带横线的绿色按钮缩小地图;或者点击绿色箭头查看邻近地区的地图。


METAR-TAF: